Terminal Aerodrome Forecast
Issued by NWS Albuquerque, NM

Home | Current Version | Previous Version | Text Only | Print | Product List | Glossary On
Versions: 1 2 3 4 5 6 7 8 9 10 11 12 13 14 15
000
FTUS45 KABQ 250534
TAFABQ
TAF
KABQ 250534Z 2506/2606 26015G25KT P6SM SCT080 BKN150
     FM250900 23011KT P6SM BKN050
     FM251500 23012G20KT P6SM VCSH OVC040
     FM251900 30017G30KT P6SM -SHRA OVC035
     FM252200 32025G35KT P6SM OVC040=

USA.gov is the U.S. government's official web portal to all federal, state and local government web resources and services.